sensor_id;sensor_type;location;lat;lon;timestamp;temperature;humidity
28548;DHT22;68292;49.600;8.746;2023-03-14T00:01:38;17.60;57.20
28548;DHT22;68292;49.600;8.746;2023-03-14T00:04:07;17.60;57.20
28548;DHT22;68292;49.600;8.746;2023-03-14T00:06:36;17.60;57.20
28548;DHT22;68292;49.600;8.746;2023-03-14T00:09:04;17.60;57.20
28548;DHT22;68292;49.600;8.746;2023-03-14T00:11:33;17.50;57.10
28548;DHT22;68292;49.600;8.746;2023-03-14T00:14:02;17.60;57.10
28548;DHT22;68292;49.600;8.746;2023-03-14T00:16:31;17.50;57.10
28548;DHT22;68292;49.600;8.746;2023-03-14T00:19:01;17.60;57.20
28548;DHT22;68292;49.600;8.746;2023-03-14T00:21:30;17.50;57.10
28548;DHT22;68292;49.600;8.746;2023-03-14T00:23:58;17.60;57.20
28548;DHT22;68292;49.600;8.746;2023-03-14T00:26:27;17.60;57.20
28548;DHT22;68292;49.600;8.746;2023-03-14T00:28:56;17.60;57.20
28548;DHT22;68292;49.600;8.746;2023-03-14T00:31:25;17.60;57.20
28548;DHT22;68292;49.600;8.746;2023-03-14T00:33:53;17.60;57.20
28548;DHT22;68292;49.600;8.746;2023-03-14T00:36:25;17.60;57.20
28548;DHT22;68292;49.600;8.746;2023-03-14T00:38:54;17.60;57.20
28548;DHT22;68292;49.600;8.746;2023-03-14T00:41:23;17.50;57.10
28548;DHT22;68292;49.600;8.746;2023-03-14T00:43:52;17.60;57.20
28548;DHT22;68292;49.600;8.746;2023-03-14T00:46:21;17.60;57.10
28548;DHT22;68292;49.600;8.746;2023-03-14T00:48:49;17.50;57.10
28548;DHT22;68292;49.600;8.746;2023-03-14T00:51:18;17.60;57.10
28548;DHT22;68292;49.600;8.746;2023-03-14T00:53:48;17.50;57.30
28548;DHT22;68292;49.600;8.746;2023-03-14T00:56:17;17.60;57.20
28548;DHT22;68292;49.600;8.746;2023-03-14T00:58:46;17.60;57.10
28548;DHT22;68292;49.600;8.746;2023-03-14T01:01:17;17.60;57.10
28548;DHT22;68292;49.600;8.746;2023-03-14T01:03:51;17.60;57.10
28548;DHT22;68292;49.600;8.746;2023-03-14T01:06:21;17.60;57.10
28548;DHT22;68292;49.600;8.746;2023-03-14T01:08:53;17.60;57.00
28548;DHT22;68292;49.600;8.746;2023-03-14T01:11:25;17.50;57.00
28548;DHT22;68292;49.600;8.746;2023-03-14T01:13:55;17.60;57.00
28548;DHT22;68292;49.600;8.746;2023-03-14T01:16:25;17.50;57.00
28548;DHT22;68292;49.600;8.746;2023-03-14T01:19:00;17.50;57.00
28548;DHT22;68292;49.600;8.746;2023-03-14T01:21:31;17.60;57.00
28548;DHT22;68292;49.600;8.746;2023-03-14T01:24:04;17.60;57.00
28548;DHT22;68292;49.600;8.746;2023-03-14T01:26:34;17.60;57.10
28548;DHT22;68292;49.600;8.746;2023-03-14T01:29:05;17.60;57.10
28548;DHT22;68292;49.600;8.746;2023-03-14T01:31:37;17.50;57.00
28548;DHT22;68292;49.600;8.746;2023-03-14T01:34:06;17.50;57.00
28548;DHT22;68292;49.600;8.746;2023-03-14T01:36:35;17.50;57.00
28548;DHT22;68292;49.600;8.746;2023-03-14T01:39:06;17.50;57.00
28548;DHT22;68292;49.600;8.746;2023-03-14T01:41:36;17.50;57.10
28548;DHT22;68292;49.600;8.746;2023-03-14T01:44:05;17.50;57.10
28548;DHT22;68292;49.600;8.746;2023-03-14T01:46:38;17.60;57.10
28548;DHT22;68292;49.600;8.746;2023-03-14T01:49:22;17.50;57.10
28548;DHT22;68292;49.600;8.746;2023-03-14T01:52:10;17.60;57.10
28548;DHT22;68292;49.600;8.746;2023-03-14T01:54:43;17.60;57.00
28548;DHT22;68292;49.600;8.746;2023-03-14T01:57:16;17.60;57.00
28548;DHT22;68292;49.600;8.746;2023-03-14T01:59:49;17.60;57.00
28548;DHT22;68292;49.600;8.746;2023-03-14T02:02:21;17.60;57.00
28548;DHT22;68292;49.600;8.746;2023-03-14T02:04:50;17.60;57.00
28548;DHT22;68292;49.600;8.746;2023-03-14T02:07:26;17.50;57.00
28548;DHT22;68292;49.600;8.746;2023-03-14T02:10:12;17.60;57.10
28548;DHT22;68292;49.600;8.746;2023-03-14T02:12:41;17.50;57.00
28548;DHT22;68292;49.600;8.746;2023-03-14T02:15:26;17.60;57.10
28548;DHT22;68292;49.600;8.746;2023-03-14T02:18:18;17.60;57.00
28548;DHT22;68292;49.600;8.746;2023-03-14T02:21:05;17.60;57.00
28548;DHT22;68292;49.600;8.746;2023-03-14T02:23:46;17.60;57.00
28548;DHT22;68292;49.600;8.746;2023-03-14T02:26:25;17.60;57.00
28548;DHT22;68292;49.600;8.746;2023-03-14T02:28:58;17.60;57.00
28548;DHT22;68292;49.600;8.746;2023-03-14T02:31:27;17.50;57.00
28548;DHT22;68292;49.600;8.746;2023-03-14T02:33:56;17.50;57.20
28548;DHT22;68292;49.600;8.746;2023-03-14T02:36:25;17.50;57.00
28548;DHT22;68292;49.600;8.746;2023-03-14T02:39:00;17.60;57.10
28548;DHT22;68292;49.600;8.746;2023-03-14T02:41:33;17.60;57.10
28548;DHT22;68292;49.600;8.746;2023-03-14T02:44:06;17.50;57.00
28548;DHT22;68292;49.600;8.746;2023-03-14T02:46:34;17.60;57.00
28548;DHT22;68292;49.600;8.746;2023-03-14T02:49:06;17.50;56.90
28548;DHT22;68292;49.600;8.746;2023-03-14T02:51:37;17.60;56.90
28548;DHT22;68292;49.600;8.746;2023-03-14T02:54:07;17.50;56.90
28548;DHT22;68292;49.600;8.746;2023-03-14T02:56:36;17.50;56.90
28548;DHT22;68292;49.600;8.746;2023-03-14T02:59:08;17.50;56.90
28548;DHT22;68292;49.600;8.746;2023-03-14T03:01:51;17.50;56.90
28548;DHT22;68292;49.600;8.746;2023-03-14T03:04:19;17.50;56.90
28548;DHT22;68292;49.600;8.746;2023-03-14T03:06:48;17.50;56.90
28548;DHT22;68292;49.600;8.746;2023-03-14T03:09:17;17.50;56.90
28548;DHT22;68292;49.600;8.746;2023-03-14T03:11:46;17.50;56.90
28548;DHT22;68292;49.600;8.746;2023-03-14T03:14:23;17.50;56.90
28548;DHT22;68292;49.600;8.746;2023-03-14T03:16:52;17.50;56.90
28548;DHT22;68292;49.600;8.746;2023-03-14T03:19:21;17.50;56.90
28548;DHT22;68292;49.600;8.746;2023-03-14T03:21:49;17.50;56.90
28548;DHT22;68292;49.600;8.746;2023-03-14T03:24:18;17.50;56.90
28548;DHT22;68292;49.600;8.746;2023-03-14T03:26:47;17.50;56.90
28548;DHT22;68292;49.600;8.746;2023-03-14T03:29:15;17.50;56.90
28548;DHT22;68292;49.600;8.746;2023-03-14T03:31:46;17.50;56.90
28548;DHT22;68292;49.600;8.746;2023-03-14T03:34:16;17.50;57.00
28548;DHT22;68292;49.600;8.746;2023-03-14T03:36:49;17.50;57.00
28548;DHT22;68292;49.600;8.746;2023-03-14T03:39:18;17.50;57.00
28548;DHT22;68292;49.600;8.746;2023-03-14T03:41:48;17.50;56.90
28548;DHT22;68292;49.600;8.746;2023-03-14T03:44:18;17.50;56.90
28548;DHT22;68292;49.600;8.746;2023-03-14T03:46:48;17.40;56.90
28548;DHT22;68292;49.600;8.746;2023-03-14T03:49:17;17.50;56.90
28548;DHT22;68292;49.600;8.746;2023-03-14T03:51:47;17.50;56.90
28548;DHT22;68292;49.600;8.746;2023-03-14T03:54:15;17.40;56.80
28548;DHT22;68292;49.600;8.746;2023-03-14T03:56:44;17.40;56.70
28548;DHT22;68292;49.600;8.746;2023-03-14T03:59:13;17.40;56.70
28548;DHT22;68292;49.600;8.746;2023-03-14T04:01:42;17.40;56.60
28548;DHT22;68292;49.600;8.746;2023-03-14T04:04:12;17.40;56.60
28548;DHT22;68292;49.600;8.746;2023-03-14T04:06:41;17.40;56.60
28548;DHT22;68292;49.600;8.746;2023-03-14T04:09:10;17.40;56.70
28548;DHT22;68292;49.600;8.746;2023-03-14T04:11:46;17.40;56.60
28548;DHT22;68292;49.600;8.746;2023-03-14T04:14:20;17.40;56.60
28548;DHT22;68292;49.600;8.746;2023-03-14T04:17:00;17.40;56.60
28548;DHT22;68292;49.600;8.746;2023-03-14T04:19:31;17.40;56.60
28548;DHT22;68292;49.600;8.746;2023-03-14T04:22:00;17.40;56.50
28548;DHT22;68292;49.600;8.746;2023-03-14T04:24:34;17.40;56.60
28548;DHT22;68292;49.600;8.746;2023-03-14T04:27:03;17.40;56.60
28548;DHT22;68292;49.600;8.746;2023-03-14T04:29:33;17.40;56.60
28548;DHT22;68292;49.600;8.746;2023-03-14T04:32:02;17.40;56.60
28548;DHT22;68292;49.600;8.746;2023-03-14T04:34:32;17.40;56.50
28548;DHT22;68292;49.600;8.746;2023-03-14T04:37:00;17.40;56.50
28548;DHT22;68292;49.600;8.746;2023-03-14T04:39:35;17.40;56.50
28548;DHT22;68292;49.600;8.746;2023-03-14T04:42:17;17.40;56.50
28548;DHT22;68292;49.600;8.746;2023-03-14T04:44:46;17.40;56.50
28548;DHT22;68292;49.600;8.746;2023-03-14T04:47:18;17.40;56.50
28548;DHT22;68292;49.600;8.746;2023-03-14T04:49:50;17.40;56.40
28548;DHT22;68292;49.600;8.746;2023-03-14T04:52:19;17.40;56.40
28548;DHT22;68292;49.600;8.746;2023-03-14T04:54:48;17.40;56.30
28548;DHT22;68292;49.600;8.746;2023-03-14T04:57:17;17.40;56.20
28548;DHT22;68292;49.600;8.746;2023-03-14T04:59:47;17.40;56.20
28548;DHT22;68292;49.600;8.746;2023-03-14T05:02:34;17.40;56.20
28548;DHT22;68292;49.600;8.746;2023-03-14T05:05:12;17.40;56.10
28548;DHT22;68292;49.600;8.746;2023-03-14T05:08:04;17.40;56.10
28548;DHT22;68292;49.600;8.746;2023-03-14T05:10:56;17.40;56.10
28548;DHT22;68292;49.600;8.746;2023-03-14T05:13:35;17.40;56.00
28548;DHT22;68292;49.600;8.746;2023-03-14T05:16:26;17.40;56.00
28548;DHT22;68292;49.600;8.746;2023-03-14T05:19:15;17.40;55.90
28548;DHT22;68292;49.600;8.746;2023-03-14T05:22:05;17.40;55.90
28548;DHT22;68292;49.600;8.746;2023-03-14T05:24:40;17.40;55.80
28548;DHT22;68292;49.600;8.746;2023-03-14T05:27:22;17.40;55.90
28548;DHT22;68292;49.600;8.746;2023-03-14T05:30:20;17.40;55.80
28548;DHT22;68292;49.600;8.746;2023-03-14T05:32:51;17.40;55.70
28548;DHT22;68292;49.600;8.746;2023-03-14T05:35:43;17.40;55.70
28548;DHT22;68292;49.600;8.746;2023-03-14T05:38:42;17.40;55.60
28548;DHT22;68292;49.600;8.746;2023-03-14T05:41:31;17.40;55.60
28548;DHT22;68292;49.600;8.746;2023-03-14T05:44:11;17.40;55.60
28548;DHT22;68292;49.600;8.746;2023-03-14T05:47:04;17.40;55.50
28548;DHT22;68292;49.600;8.746;2023-03-14T05:49:52;17.40;55.50
28548;DHT22;68292;49.600;8.746;2023-03-14T05:52:39;17.30;55.40
28548;DHT22;68292;49.600;8.746;2023-03-14T05:55:38;17.40;55.40
28548;DHT22;68292;49.600;8.746;2023-03-14T05:58:22;17.30;55.40
28548;DHT22;68292;49.600;8.746;2023-03-14T06:01:11;17.40;55.50
28548;DHT22;68292;49.600;8.746;2023-03-14T06:04:03;17.40;55.40
28548;DHT22;68292;49.600;8.746;2023-03-14T06:06:32;17.40;55.40
28548;DHT22;68292;49.600;8.746;2023-03-14T06:09:02;17.30;55.30
28548;DHT22;68292;49.600;8.746;2023-03-14T06:11:34;17.30;55.30
28548;DHT22;68292;49.600;8.746;2023-03-14T06:14:04;17.30;55.20
28548;DHT22;68292;49.600;8.746;2023-03-14T06:16:33;17.30;55.30
28548;DHT22;68292;49.600;8.746;2023-03-14T06:19:03;17.30;55.20
28548;DHT22;68292;49.600;8.746;2023-03-14T06:21:32;17.30;55.10
28548;DHT22;68292;49.600;8.746;2023-03-14T06:24:01;17.30;55.10
28548;DHT22;68292;49.600;8.746;2023-03-14T06:26:40;17.30;55.00
28548;DHT22;68292;49.600;8.746;2023-03-14T06:29:09;17.30;54.90
28548;DHT22;68292;49.600;8.746;2023-03-14T06:31:38;17.30;54.90
28548;DHT22;68292;49.600;8.746;2023-03-14T06:34:08;17.30;55.00
28548;DHT22;68292;49.600;8.746;2023-03-14T06:36:38;17.30;54.90
28548;DHT22;68292;49.600;8.746;2023-03-14T06:39:07;17.30;54.90
28548;DHT22;68292;49.600;8.746;2023-03-14T06:41:42;17.30;54.90
28548;DHT22;68292;49.600;8.746;2023-03-14T06:44:11;17.30;54.70
28548;DHT22;68292;49.600;8.746;2023-03-14T06:46:40;17.30;54.80
28548;DHT22;68292;49.600;8.746;2023-03-14T06:49:08;17.30;54.80
28548;DHT22;68292;49.600;8.746;2023-03-14T06:51:37;17.30;54.80
28548;DHT22;68292;49.600;8.746;2023-03-14T06:54:09;17.30;54.70
28548;DHT22;68292;49.600;8.746;2023-03-14T06:56:37;17.30;54.70
28548;DHT22;68292;49.600;8.746;2023-03-14T06:59:08;17.30;54.70
28548;DHT22;68292;49.600;8.746;2023-03-14T07:01:37;17.30;54.70
28548;DHT22;68292;49.600;8.746;2023-03-14T07:04:10;17.30;54.80
28548;DHT22;68292;49.600;8.746;2023-03-14T07:06:43;17.30;54.80
28548;DHT22;68292;49.600;8.746;2023-03-14T07:09:14;17.30;54.80
28548;DHT22;68292;49.600;8.746;2023-03-14T07:11:50;17.30;54.90
28548;DHT22;68292;49.600;8.746;2023-03-14T07:14:20;17.40;55.00
28548;DHT22;68292;49.600;8.746;2023-03-14T07:16:49;17.40;54.90
28548;DHT22;68292;49.600;8.746;2023-03-14T07:19:18;17.40;55.00
28548;DHT22;68292;49.600;8.746;2023-03-14T07:21:47;17.30;54.90
28548;DHT22;68292;49.600;8.746;2023-03-14T07:24:21;17.30;54.90
28548;DHT22;68292;49.600;8.746;2023-03-14T07:26:49;17.30;54.90
28548;DHT22;68292;49.600;8.746;2023-03-14T07:29:25;17.30;54.90
28548;DHT22;68292;49.600;8.746;2023-03-14T07:31:55;17.30;54.90
28548;DHT22;68292;49.600;8.746;2023-03-14T07:34:24;17.30;54.80
28548;DHT22;68292;49.600;8.746;2023-03-14T07:36:54;17.30;54.80
28548;DHT22;68292;49.600;8.746;2023-03-14T07:39:23;17.30;54.80
28548;DHT22;68292;49.600;8.746;2023-03-14T07:42:07;17.40;54.80
28548;DHT22;68292;49.600;8.746;2023-03-14T07:45:10;17.40;54.80
28548;DHT22;68292;49.600;8.746;2023-03-14T07:47:39;17.40;54.70
28548;DHT22;68292;49.600;8.746;2023-03-14T07:50:09;17.40;54.70
28548;DHT22;68292;49.600;8.746;2023-03-14T07:52:38;17.40;54.70
28548;DHT22;68292;49.600;8.746;2023-03-14T07:55:07;17.40;54.60
28548;DHT22;68292;49.600;8.746;2023-03-14T07:57:37;17.40;54.60
28548;DHT22;68292;49.600;8.746;2023-03-14T08:00:09;17.40;54.70
28548;DHT22;68292;49.600;8.746;2023-03-14T08:02:41;17.30;54.60
28548;DHT22;68292;49.600;8.746;2023-03-14T08:05:10;17.40;54.70
28548;DHT22;68292;49.600;8.746;2023-03-14T08:07:39;17.40;54.70
28548;DHT22;68292;49.600;8.746;2023-03-14T08:10:09;17.40;54.60
28548;DHT22;68292;49.600;8.746;2023-03-14T08:12:40;17.40;54.70
28548;DHT22;68292;49.600;8.746;2023-03-14T08:15:10;17.40;54.60
28548;DHT22;68292;49.600;8.746;2023-03-14T08:17:39;17.40;54.50
28548;DHT22;68292;49.600;8.746;2023-03-14T08:20:09;17.40;54.60
28548;DHT22;68292;49.600;8.746;2023-03-14T08:22:40;17.40;54.60
28548;DHT22;68292;49.600;8.746;2023-03-14T08:25:10;17.40;54.60
28548;DHT22;68292;49.600;8.746;2023-03-14T08:27:38;17.40;54.50
28548;DHT22;68292;49.600;8.746;2023-03-14T08:30:12;17.40;54.60
28548;DHT22;68292;49.600;8.746;2023-03-14T08:32:45;17.40;54.60
28548;DHT22;68292;49.600;8.746;2023-03-14T08:35:14;17.40;54.70
28548;DHT22;68292;49.600;8.746;2023-03-14T08:37:43;17.50;54.70
28548;DHT22;68292;49.600;8.746;2023-03-14T08:40:13;17.40;54.70
28548;DHT22;68292;49.600;8.746;2023-03-14T08:42:44;17.40;54.70
28548;DHT22;68292;49.600;8.746;2023-03-14T08:45:16;17.50;54.80
28548;DHT22;68292;49.600;8.746;2023-03-14T08:47:45;17.50;54.70
28548;DHT22;68292;49.600;8.746;2023-03-14T08:50:14;17.50;54.70
28548;DHT22;68292;49.600;8.746;2023-03-14T08:52:43;17.50;54.70
28548;DHT22;68292;49.600;8.746;2023-03-14T08:55:11;17.50;54.70
28548;DHT22;68292;49.600;8.746;2023-03-14T08:57:40;17.50;54.90
28548;DHT22;68292;49.600;8.746;2023-03-14T09:00:10;17.50;54.90
28548;DHT22;68292;49.600;8.746;2023-03-14T09:02:43;17.50;54.90
28548;DHT22;68292;49.600;8.746;2023-03-14T09:05:13;17.60;54.90
28548;DHT22;68292;49.600;8.746;2023-03-14T09:07:42;17.60;54.90
28548;DHT22;68292;49.600;8.746;2023-03-14T09:10:11;17.60;54.90
28548;DHT22;68292;49.600;8.746;2023-03-14T09:12:40;17.60;54.80
28548;DHT22;68292;49.600;8.746;2023-03-14T09:15:09;17.60;54.80
28548;DHT22;68292;49.600;8.746;2023-03-14T09:17:38;17.60;54.70
28548;DHT22;68292;49.600;8.746;2023-03-14T09:20:10;17.60;54.70
28548;DHT22;68292;49.600;8.746;2023-03-14T09:22:41;17.70;54.70
28548;DHT22;68292;49.600;8.746;2023-03-14T09:25:10;17.70;54.70
28548;DHT22;68292;49.600;8.746;2023-03-14T09:27:39;17.70;54.70
28548;DHT22;68292;49.600;8.746;2023-03-14T09:30:09;17.70;54.70
28548;DHT22;68292;49.600;8.746;2023-03-14T09:32:38;17.70;54.70
28548;DHT22;68292;49.600;8.746;2023-03-14T09:35:09;17.70;54.60
28548;DHT22;68292;49.600;8.746;2023-03-14T09:37:38;17.70;54.50
28548;DHT22;68292;49.600;8.746;2023-03-14T09:40:09;17.70;54.50
28548;DHT22;68292;49.600;8.746;2023-03-14T09:42:41;17.70;54.50
28548;DHT22;68292;49.600;8.746;2023-03-14T09:45:13;17.70;54.50
28548;DHT22;68292;49.600;8.746;2023-03-14T09:47:44;17.70;54.50
28548;DHT22;68292;49.600;8.746;2023-03-14T09:50:31;17.70;54.50
28548;DHT22;68292;49.600;8.746;2023-03-14T09:53:04;17.70;54.50
28548;DHT22;68292;49.600;8.746;2023-03-14T09:55:36;17.70;54.60
28548;DHT22;68292;49.600;8.746;2023-03-14T09:58:11;17.70;54.60
28548;DHT22;68292;49.600;8.746;2023-03-14T10:00:40;17.70;54.60
28548;DHT22;68292;49.600;8.746;2023-03-14T10:03:22;17.70;54.70
28548;DHT22;68292;49.600;8.746;2023-03-14T10:05:55;17.70;54.80
28548;DHT22;68292;49.600;8.746;2023-03-14T10:08:24;17.70;54.80
28548;DHT22;68292;49.600;8.746;2023-03-14T10:10:53;17.70;54.80
28548;DHT22;68292;49.600;8.746;2023-03-14T10:13:23;17.70;54.90
28548;DHT22;68292;49.600;8.746;2023-03-14T10:15:59;17.70;55.00
28548;DHT22;68292;49.600;8.746;2023-03-14T10:18:33;17.70;55.00
28548;DHT22;68292;49.600;8.746;2023-03-14T10:21:05;17.70;55.00
28548;DHT22;68292;49.600;8.746;2023-03-14T10:23:36;17.70;55.00
28548;DHT22;68292;49.600;8.746;2023-03-14T10:26:08;17.70;55.00
28548;DHT22;68292;49.600;8.746;2023-03-14T10:28:44;17.70;55.00
28548;DHT22;68292;49.600;8.746;2023-03-14T10:31:14;17.70;55.00
28548;DHT22;68292;49.600;8.746;2023-03-14T10:33:58;17.70;55.00
28548;DHT22;68292;49.600;8.746;2023-03-14T10:36:30;17.70;55.20
28548;DHT22;68292;49.600;8.746;2023-03-14T10:39:22;17.70;55.30
28548;DHT22;68292;49.600;8.746;2023-03-14T10:41:55;17.70;55.40
28548;DHT22;68292;49.600;8.746;2023-03-14T10:44:31;17.70;55.40
28548;DHT22;68292;49.600;8.746;2023-03-14T10:47:03;17.70;55.30
28548;DHT22;68292;49.600;8.746;2023-03-14T10:49:34;17.70;55.40
28548;DHT22;68292;49.600;8.746;2023-03-14T10:52:19;17.60;56.10
28548;DHT22;68292;49.600;8.746;2023-03-14T10:55:04;17.60;55.60
28548;DHT22;68292;49.600;8.746;2023-03-14T10:57:39;17.60;55.50
28548;DHT22;68292;49.600;8.746;2023-03-14T11:00:12;17.70;55.60
28548;DHT22;68292;49.600;8.746;2023-03-14T11:03:02;17.60;55.60
28548;DHT22;68292;49.600;8.746;2023-03-14T11:05:38;17.60;55.60
28548;DHT22;68292;49.600;8.746;2023-03-14T11:08:14;17.60;55.60
28548;DHT22;68292;49.600;8.746;2023-03-14T11:10:48;17.60;55.60
28548;DHT22;68292;49.600;8.746;2023-03-14T11:13:24;17.60;55.60
28548;DHT22;68292;49.600;8.746;2023-03-14T11:15:59;17.60;55.70
28548;DHT22;68292;49.600;8.746;2023-03-14T11:18:51;17.60;55.90
28548;DHT22;68292;49.600;8.746;2023-03-14T11:21:29;17.50;56.00
28548;DHT22;68292;49.600;8.746;2023-03-14T11:24:27;17.60;56.00
28548;DHT22;68292;49.600;8.746;2023-03-14T11:27:08;17.50;56.10
28548;DHT22;68292;49.600;8.746;2023-03-14T11:29:51;17.60;56.10
28548;DHT22;68292;49.600;8.746;2023-03-14T11:32:33;17.50;56.20
28548;DHT22;68292;49.600;8.746;2023-03-14T11:35:16;17.60;56.30
28548;DHT22;68292;49.600;8.746;2023-03-14T11:37:47;17.50;56.30
28548;DHT22;68292;49.600;8.746;2023-03-14T11:40:23;17.60;56.30
28548;DHT22;68292;49.600;8.746;2023-03-14T11:42:59;17.50;56.30
28548;DHT22;68292;49.600;8.746;2023-03-14T11:45:34;17.50;56.40
28548;DHT22;68292;49.600;8.746;2023-03-14T11:48:20;17.50;56.40
28548;DHT22;68292;49.600;8.746;2023-03-14T11:50:56;17.50;56.50
28548;DHT22;68292;49.600;8.746;2023-03-14T11:53:40;17.50;56.40
28548;DHT22;68292;49.600;8.746;2023-03-14T11:56:22;17.50;56.60
28548;DHT22;68292;49.600;8.746;2023-03-14T11:58:58;17.50;56.60
28548;DHT22;68292;49.600;8.746;2023-03-14T12:04:34;17.40;56.90
28548;DHT22;68292;49.600;8.746;2023-03-14T12:07:18;17.40;56.90
28548;DHT22;68292;49.600;8.746;2023-03-14T12:09:49;17.40;56.80
28548;DHT22;68292;49.600;8.746;2023-03-14T12:12:22;17.40;56.80
28548;DHT22;68292;49.600;8.746;2023-03-14T12:14:55;17.40;57.00
28548;DHT22;68292;49.600;8.746;2023-03-14T12:17:27;17.40;57.00
28548;DHT22;68292;49.600;8.746;2023-03-14T12:20:17;17.40;57.00
28548;DHT22;68292;49.600;8.746;2023-03-14T12:22:48;17.40;57.20
28548;DHT22;68292;49.600;8.746;2023-03-14T12:25:19;17.40;56.90
28548;DHT22;68292;49.600;8.746;2023-03-14T12:28:04;17.30;56.70
28548;DHT22;68292;49.600;8.746;2023-03-14T12:30:47;17.30;56.70
28548;DHT22;68292;49.600;8.746;2023-03-14T12:33:31;17.30;56.50
28548;DHT22;68292;49.600;8.746;2023-03-14T12:36:11;17.30;56.50
28548;DHT22;68292;49.600;8.746;2023-03-14T12:39:05;17.30;56.20
28548;DHT22;68292;49.600;8.746;2023-03-14T12:41:44;17.30;56.10
28548;DHT22;68292;49.600;8.746;2023-03-14T12:44:41;17.30;55.70
28548;DHT22;68292;49.600;8.746;2023-03-14T12:47:52;17.20;55.50
28548;DHT22;68292;49.600;8.746;2023-03-14T12:50:32;17.20;55.40
28548;DHT22;68292;49.600;8.746;2023-03-14T12:56:26;17.20;54.90
28548;DHT22;68292;49.600;8.746;2023-03-14T13:02:00;17.20;54.60
28548;DHT22;68292;49.600;8.746;2023-03-14T13:04:33;17.20;54.70
28548;DHT22;68292;49.600;8.746;2023-03-14T13:07:11;17.20;54.70
28548;DHT22;68292;49.600;8.746;2023-03-14T13:10:00;17.10;54.60
28548;DHT22;68292;49.600;8.746;2023-03-14T13:12:38;17.10;54.40
28548;DHT22;68292;49.600;8.746;2023-03-14T13:15:21;17.20;54.30
28548;DHT22;68292;49.600;8.746;2023-03-14T13:17:56;17.10;54.20
28548;DHT22;68292;49.600;8.746;2023-03-14T13:20:32;17.20;54.00
28548;DHT22;68292;49.600;8.746;2023-03-14T13:23:03;17.10;53.90
28548;DHT22;68292;49.600;8.746;2023-03-14T13:25:34;17.10;53.90
28548;DHT22;68292;49.600;8.746;2023-03-14T13:28:04;17.10;53.70
28548;DHT22;68292;49.600;8.746;2023-03-14T13:30:39;17.10;53.80
28548;DHT22;68292;49.600;8.746;2023-03-14T13:33:15;17.10;53.50
28548;DHT22;68292;49.600;8.746;2023-03-14T13:35:46;17.10;53.40
28548;DHT22;68292;49.600;8.746;2023-03-14T13:38:19;17.10;54.30
28548;DHT22;68292;49.600;8.746;2023-03-14T13:40:49;17.10;53.50
28548;DHT22;68292;49.600;8.746;2023-03-14T13:43:23;17.10;53.70
28548;DHT22;68292;49.600;8.746;2023-03-14T13:45:56;17.10;53.70
28548;DHT22;68292;49.600;8.746;2023-03-14T13:48:32;17.10;53.50
28548;DHT22;68292;49.600;8.746;2023-03-14T13:51:05;17.10;53.10
28548;DHT22;68292;49.600;8.746;2023-03-14T13:53:43;17.10;52.90
28548;DHT22;68292;49.600;8.746;2023-03-14T13:56:12;17.10;52.50
28548;DHT22;68292;49.600;8.746;2023-03-14T13:58:42;17.10;52.90
28548;DHT22;68292;49.600;8.746;2023-03-14T14:01:14;17.10;52.90
28548;DHT22;68292;49.600;8.746;2023-03-14T14:03:48;17.10;53.30
28548;DHT22;68292;49.600;8.746;2023-03-14T14:06:31;17.10;52.60
28548;DHT22;68292;49.600;8.746;2023-03-14T14:09:02;17.00;52.30
28548;DHT22;68292;49.600;8.746;2023-03-14T14:11:41;17.00;52.80
28548;DHT22;68292;49.600;8.746;2023-03-14T14:14:30;17.00;52.50
28548;DHT22;68292;49.600;8.746;2023-03-14T14:17:01;17.00;52.50
28548;DHT22;68292;49.600;8.746;2023-03-14T14:19:34;17.00;52.50
28548;DHT22;68292;49.600;8.746;2023-03-14T14:22:04;17.00;52.20
28548;DHT22;68292;49.600;8.746;2023-03-14T14:24:34;17.00;52.40
28548;DHT22;68292;49.600;8.746;2023-03-14T14:27:12;17.00;52.30
28548;DHT22;68292;49.600;8.746;2023-03-14T14:29:43;16.90;52.20
28548;DHT22;68292;49.600;8.746;2023-03-14T14:32:14;16.90;52.20
28548;DHT22;68292;49.600;8.746;2023-03-14T14:34:46;16.90;52.20
28548;DHT22;68292;49.600;8.746;2023-03-14T14:37:21;16.90;52.20
28548;DHT22;68292;49.600;8.746;2023-03-14T14:39:55;16.90;52.10
28548;DHT22;68292;49.600;8.746;2023-03-14T14:42:27;16.90;52.40
28548;DHT22;68292;49.600;8.746;2023-03-14T14:44:58;16.90;52.10
28548;DHT22;68292;49.600;8.746;2023-03-14T14:47:28;16.90;52.20
28548;DHT22;68292;49.600;8.746;2023-03-14T14:50:03;16.90;52.00
28548;DHT22;68292;49.600;8.746;2023-03-14T14:52:39;16.90;51.60
28548;DHT22;68292;49.600;8.746;2023-03-14T14:55:16;16.90;51.40
28548;DHT22;68292;49.600;8.746;2023-03-14T14:57:53;16.90;51.00
28548;DHT22;68292;49.600;8.746;2023-03-14T15:00:26;16.90;50.80
28548;DHT22;68292;49.600;8.746;2023-03-14T15:02:59;16.90;51.00
28548;DHT22;68292;49.600;8.746;2023-03-14T15:05:29;16.80;50.30
28548;DHT22;68292;49.600;8.746;2023-03-14T15:08:03;16.80;50.40
28548;DHT22;68292;49.600;8.746;2023-03-14T15:10:36;16.80;50.50
28548;DHT22;68292;49.600;8.746;2023-03-14T15:13:05;16.80;50.20
28548;DHT22;68292;49.600;8.746;2023-03-14T15:15:33;16.80;50.20
28548;DHT22;68292;49.600;8.746;2023-03-14T15:18:04;16.80;50.00
28548;DHT22;68292;49.600;8.746;2023-03-14T15:20:41;16.80;49.90
28548;DHT22;68292;49.600;8.746;2023-03-14T15:23:11;16.80;49.70
28548;DHT22;68292;49.600;8.746;2023-03-14T15:25:41;16.80;49.90
28548;DHT22;68292;49.600;8.746;2023-03-14T15:28:25;16.80;49.70
28548;DHT22;68292;49.600;8.746;2023-03-14T15:30:56;16.80;49.50
28548;DHT22;68292;49.600;8.746;2023-03-14T15:33:26;16.80;49.40
28548;DHT22;68292;49.600;8.746;2023-03-14T15:35:57;16.80;49.30
28548;DHT22;68292;49.600;8.746;2023-03-14T15:38:27;16.80;49.10
28548;DHT22;68292;49.600;8.746;2023-03-14T15:40:56;16.80;49.20
28548;DHT22;68292;49.600;8.746;2023-03-14T15:43:25;16.80;49.00
28548;DHT22;68292;49.600;8.746;2023-03-14T15:45:53;16.80;48.90
28548;DHT22;68292;49.600;8.746;2023-03-14T15:48:24;16.80;48.80
28548;DHT22;68292;49.600;8.746;2023-03-14T15:50:52;16.80;48.60
28548;DHT22;68292;49.600;8.746;2023-03-14T15:53:22;16.80;48.50
28548;DHT22;68292;49.600;8.746;2023-03-14T15:55:51;16.80;48.10
28548;DHT22;68292;49.600;8.746;2023-03-14T15:58:20;16.80;48.00
28548;DHT22;68292;49.600;8.746;2023-03-14T16:00:50;16.80;48.00
28548;DHT22;68292;49.600;8.746;2023-03-14T16:03:19;16.80;48.10
28548;DHT22;68292;49.600;8.746;2023-03-14T16:05:47;16.80;47.90
28548;DHT22;68292;49.600;8.746;2023-03-14T16:08:16;16.80;47.90
28548;DHT22;68292;49.600;8.746;2023-03-14T16:10:46;16.80;47.70
28548;DHT22;68292;49.600;8.746;2023-03-14T16:13:15;16.80;47.50
28548;DHT22;68292;49.600;8.746;2023-03-14T16:15:53;16.80;47.80
28548;DHT22;68292;49.600;8.746;2023-03-14T16:18:28;16.80;46.80
28548;DHT22;68292;49.600;8.746;2023-03-14T16:20:59;16.80;47.40